Time,TemperatureF,DewpointF,PressureIn,WindDirection,WindDirectionDegrees,WindSpeedMPH,WindSpeedGustMPH,Humidity,HourlyPrecipIn,Conditions,Clouds,dailyrainin,SolarRadiationWatts/m^2,SoftwareType,DateUTC
2013-08-29 00:14:00,64.0,63.0,-100.00,SW,219,0.0,2.0,98,0.00,,,0.01,0.000000,,2013-08-29 05:14:00,
2013-08-29 00:23:00,64.0,63.0,-100.00,SW,219,0.0,2.0,98,0.00,,,0.01,0.000000,,2013-08-29 05:23:00,
2013-08-29 00:34:00,64.0,63.0,-100.00,SW,219,0.0,2.0,98,0.00,,,0.01,0.000000,,2013-08-29 05:34:00,
2013-08-29 01:12:00,64.0,64.0,-100.00,West,272,0.0,2.0,99,0.00,,,0.01,0.000000,,2013-08-29 06:12:00,
2013-08-29 01:22:00,64.0,64.0,-100.00,West,272,0.0,2.0,99,0.00,,,0.01,0.000000,,2013-08-29 06:22:00,
2013-08-29 01:32:00,64.0,64.0,-100.00,West,272,0.0,2.0,99,0.00,,,0.01,0.000000,,2013-08-29 06:32:00,
2013-08-29 02:12:00,63.0,63.0,-100.00,ESE,114,1.0,3.0,99,0.00,,,0.01,0.000000,,2013-08-29 07:12:00,
2013-08-29 02:22:00,63.0,63.0,-100.00,ESE,114,1.0,3.0,99,0.00,,,0.01,0.000000,,2013-08-29 07:22:00,
2013-08-29 02:32:00,63.0,63.0,-100.00,ESE,114,1.0,3.0,99,0.00,,,0.01,0.000000,,2013-08-29 07:32:00,
2013-08-29 03:12:00,62.0,62.0,-100.00,East,87,1.0,2.0,99,0.00,,,0.01,0.000000,,2013-08-29 08:12:00,
2013-08-29 03:22:00,62.0,62.0,-100.00,East,87,1.0,2.0,99,0.00,,,0.01,0.000000,,2013-08-29 08:22:00,
2013-08-29 03:32:00,62.0,62.0,-100.00,East,87,1.0,2.0,99,0.00,,,0.01,0.000000,,2013-08-29 08:32:00,
2013-08-29 04:12:00,61.0,61.0,-100.00,SSE,149,0.0,2.0,99,0.00,,,0.01,0.000000,,2013-08-29 09:12:00,
2013-08-29 04:22:00,61.0,61.0,-100.00,SSE,149,0.0,2.0,99,0.00,,,0.01,0.000000,,2013-08-29 09:22:00,
2013-08-29 04:34:00,61.0,61.0,-100.00,SSE,149,0.0,2.0,99,0.00,,,0.01,0.000000,,2013-08-29 09:34:00,
2013-08-29 05:14:00,62.0,62.0,-100.00,SSW,204,0.0,2.0,100,0.00,,,0.00,0.000000,,2013-08-29 10:14:00,
2013-08-29 05:24:00,62.0,62.0,-100.00,SSW,204,0.0,2.0,100,0.00,,,0.00,0.000000,,2013-08-29 10:24:00,
2013-08-29 05:33:00,62.0,62.0,-100.00,SSW,204,0.0,2.0,100,0.00,,,0.00,0.000000,,2013-08-29 10:33:00,
2013-08-29 06:12:00,62.0,62.0,-100.00,SE,146,0.0,0.0,100,0.00,,,0.00,0.000000,,2013-08-29 11:12:00,
2013-08-29 06:22:00,62.0,62.0,-100.00,SE,146,0.0,0.0,100,0.00,,,0.00,0.000000,,2013-08-29 11:22:00,
2013-08-29 06:32:00,62.0,62.0,-100.00,SE,146,0.0,0.0,100,0.00,,,0.00,0.000000,,2013-08-29 11:32:00,
2013-08-29 07:11:00,62.0,62.0,-100.00,SSW,211,0.0,2.0,100,0.00,,,0.00,5.000000,,2013-08-29 12:11:00,
2013-08-29 07:22:00,62.0,62.0,-100.00,SSW,211,0.0,2.0,100,0.00,,,0.00,5.000000,,2013-08-29 12:22:00,
2013-08-29 07:32:00,62.0,62.0,-100.00,SSW,211,0.0,2.0,100,0.00,,,0.00,5.000000,,2013-08-29 12:32:00,
2013-08-29 08:12:00,65.0,65.0,-100.00,WSW,258,0.0,2.0,99,0.00,,,-99.99,44.000000,,2013-08-29 13:12:00,
2013-08-29 08:22:00,65.0,65.0,-100.00,WSW,258,0.0,2.0,99,0.00,,,-99.99,44.000000,,2013-08-29 13:22:00,
2013-08-29 08:32:00,65.0,65.0,-100.00,WSW,258,0.0,2.0,99,0.00,,,-99.99,44.000000,,2013-08-29 13:32:00,
2013-08-29 09:11:00,70.0,68.0,-100.00,WSW,242,2.0,4.0,93,0.00,,,0.00,109.000000,,2013-08-29 14:11:00,
2013-08-29 09:21:00,70.0,68.0,-100.00,WSW,242,2.0,4.0,93,0.00,,,0.00,109.000000,,2013-08-29 14:21:00,
2013-08-29 09:31:00,70.0,68.0,-100.00,WSW,242,2.0,4.0,93,0.00,,,0.00,109.000000,,2013-08-29 14:31:00,
2013-08-29 10:12:00,77.0,69.0,-100.00,SSW,212,3.0,7.0,77,0.00,,,0.00,384.000000,,2013-08-29 15:12:00,
2013-08-29 10:22:00,77.0,69.0,-100.00,SSW,212,3.0,7.0,77,0.00,,,0.00,384.000000,,2013-08-29 15:22:00,
2013-08-29 10:33:00,77.0,69.0,-100.00,SSW,212,3.0,7.0,77,0.00,,,0.00,384.000000,,2013-08-29 15:33:00,
2013-08-29 11:13:00,79.0,68.0,-100.00,SW,219,4.0,9.0,70,0.00,,,0.00,622.000000,,2013-08-29 16:13:00,
2013-08-29 11:24:00,79.0,68.0,-100.00,SW,219,4.0,9.0,70,0.00,,,0.00,622.000000,,2013-08-29 16:24:00,
2013-08-29 11:34:00,79.0,68.0,-100.00,SW,219,4.0,9.0,70,0.00,,,0.00,622.000000,,2013-08-29 16:34:00,
2013-08-29 12:13:00,82.0,68.0,-100.00,SSW,209,4.0,12.0,63,0.00,,,0.00,697.000000,,2013-08-29 17:13:00,
2013-08-29 12:22:00,82.0,68.0,-100.00,SSW,209,4.0,12.0,63,0.00,,,0.00,697.000000,,2013-08-29 17:22:00,
2013-08-29 12:34:00,82.0,68.0,-100.00,SSW,209,4.0,12.0,63,0.00,,,0.00,697.000000,,2013-08-29 17:34:00,
2013-08-29 13:12:00,82.0,67.0,-100.00,SW,231,5.0,10.0,61,0.00,,,0.00,688.000000,,2013-08-29 18:12:00,
2013-08-29 13:21:00,82.0,67.0,-100.00,SW,231,5.0,10.0,61,0.00,,,0.00,688.000000,,2013-08-29 18:21:00,
2013-08-29 13:32:00,82.0,67.0,-100.00,SW,231,5.0,10.0,61,0.00,,,0.00,688.000000,,2013-08-29 18:32:00,
2013-08-29 14:11:00,82.0,67.0,-100.00,WSW,237,5.0,12.0,60,0.00,,,0.00,658.000000,,2013-08-29 19:11:00,
2013-08-29 14:22:00,82.0,67.0,-100.00,WSW,237,5.0,12.0,60,0.00,,,0.00,658.000000,,2013-08-29 19:22:00,
2013-08-29 14:32:00,82.0,67.0,-100.00,WSW,237,5.0,12.0,60,0.00,,,0.00,658.000000,,2013-08-29 19:32:00,
2013-08-29 15:13:00,79.0,68.0,-100.00,SSW,196,3.0,12.0,70,0.00,,,0.00,334.000000,,2013-08-29 20:13:00,
2013-08-29 15:22:00,79.0,68.0,-100.00,SSW,196,3.0,12.0,70,0.00,,,0.00,334.000000,,2013-08-29 20:22:00,
2013-08-29 15:32:00,79.0,68.0,-100.00,SSW,196,3.0,12.0,70,0.00,,,0.00,334.000000,,2013-08-29 20:32:00,
2013-08-29 16:12:00,74.0,72.0,-100.00,NE,49,1.0,4.0,92,0.02,,,0.02,109.000000,,2013-08-29 21:12:00,
2013-08-29 16:22:00,74.0,72.0,-100.00,NE,49,1.0,4.0,92,0.02,,,0.02,109.000000,,2013-08-29 21:22:00,
2013-08-29 16:33:00,74.0,72.0,-100.00,NE,49,1.0,4.0,92,0.02,,,0.02,109.000000,,2013-08-29 21:33:00,
2013-08-29 17:14:00,72.0,71.0,-100.00,South,174,3.0,7.0,96,0.01,,,0.03,14.000000,,2013-08-29 22:14:00,
2013-08-29 17:24:00,72.0,71.0,-100.00,South,174,3.0,7.0,96,0.01,,,0.03,14.000000,,2013-08-29 22:24:00,
2013-08-29 17:33:00,72.0,71.0,-100.00,South,174,3.0,7.0,96,0.01,,,0.03,14.000000,,2013-08-29 22:33:00,
2013-08-29 18:13:00,72.0,70.0,-100.00,East,97,3.0,5.0,94,0.04,,,0.07,15.000000,,2013-08-29 23:13:00,
2013-08-29 18:22:00,72.0,70.0,-100.00,East,97,3.0,5.0,94,0.04,,,0.07,15.000000,,2013-08-29 23:22:00,
2013-08-29 18:33:00,72.0,70.0,-100.00,East,97,3.0,5.0,94,0.04,,,0.07,15.000000,,2013-08-29 23:33:00,
2013-08-29 19:12:00,71.0,69.0,-100.00,SSW,210,2.0,4.0,94,0.00,,,0.07,41.000000,,2013-08-30 00:12:00,
2013-08-29 19:22:00,71.0,69.0,-100.00,SSW,210,2.0,4.0,94,0.00,,,0.07,41.000000,,2013-08-30 00:22:00,
2013-08-29 19:32:00,71.0,69.0,-100.00,SSW,210,2.0,4.0,94,0.00,,,0.07,41.000000,,2013-08-30 00:32:00,
2013-08-29 20:12:00,70.0,68.0,-100.00,SSW,194,6.0,12.0,95,0.01,,,0.08,4.000000,,2013-08-30 01:12:00,
2013-08-29 20:22:00,70.0,68.0,-100.00,SSW,194,6.0,12.0,95,0.01,,,0.08,4.000000,,2013-08-30 01:22:00,
2013-08-29 20:32:00,70.0,68.0,-100.00,SSW,194,6.0,12.0,95,0.01,,,0.08,4.000000,,2013-08-30 01:32:00,
2013-08-29 21:11:00,69.0,67.0,-100.00,SW,215,5.0,11.0,94,0.01,,,0.09,0.000000,,2013-08-30 02:11:00,
2013-08-29 21:22:00,69.0,67.0,-100.00,SW,215,5.0,11.0,94,0.01,,,0.09,0.000000,,2013-08-30 02:22:00,
2013-08-29 21:32:00,69.0,67.0,-100.00,SW,215,5.0,11.0,94,0.01,,,0.09,0.000000,,2013-08-30 02:32:00,
2013-08-29 22:12:00,67.0,64.0,-100.00,SSW,208,6.0,14.0,91,0.00,,,0.09,0.000000,,2013-08-30 03:12:00,
2013-08-29 22:22:00,67.0,64.0,-100.00,SSW,208,6.0,14.0,91,0.00,,,0.09,0.000000,,2013-08-30 03:22:00,
2013-08-29 22:34:00,67.0,64.0,-100.00,SSW,208,6.0,14.0,91,0.00,,,0.09,0.000000,,2013-08-30 03:34:00,
2013-08-29 23:14:00,67.0,65.0,-100.00,SW,216,4.0,13.0,93,0.00,,,0.09,0.000000,,2013-08-30 04:14:00,
2013-08-29 23:24:00,67.0,65.0,-100.00,SW,216,4.0,13.0,93,0.00,,,0.09,0.000000,,2013-08-30 04:24:00,
2013-08-29 23:33:00,67.0,65.0,-100.00,SW,216,4.0,13.0,93,0.00,,,0.09,0.000000,,2013-08-30 04:33:00,